Botkinburg, Arkansas
Current Conditions -  °F | °C
As of 10:35 AM on Sunday 21 Dec 2014 (Local Time) from KCCA Reporting Station
Haze Haze  
Wind Chill: 42°   Ceiling: 4700
Heat Index: 45°   Visibility: 5mi
Dew Point: 36°   Wind: 5mph
Humidity: 71%   Direction: 90°E
Pressure: 30.18"   Gusts: NA
Location:  35.6269°N, 92.5508°W
Report Text: KCCA 211635Z AUTO 09004KT 5SM HZ OVC047 07/02 A3018 RMK AO2
Loading
Personal Weather Stations






























Interactive Weather Map New forecast layout! Learn more

10-Day Weather Forecast

Advertisements
Track Severe Weather on mobile